Phoenix (PHX/KPHX)

Information

Location
Phoenix, AZ
Local Time
17:13 / 5:13 pm
GMT Time
00:13 / 12:13 am
Gates
No FAA reported delays
METAR KPHX 252251Z 25015G23KT 10SM FEW130 SCT210 SCT250 31/01 A2961 RMK AO2 PK WND 27028/2200 SLP009 T03060006
TAF KPHX 252042Z 2521/2618 27016G26KT P6SM BKN250 FM252200 28025G37KT P6SM BKN250 TEMPO 2522/2602 6SM BLDU FM260300 28015G22KT P6SM SCT250 FM260600 32008KT P6SM SCT250 FM261400 06005KT P6SM FEW250